Decoded Metar for KSUW (SUPERIOR in WI, USA) (IATA:SUW) | Meteo·Mobile Aviation Weather
aviador You're here:

KSUW Decoded Metar

SUPERIOR in WI, USA
Report Time2019-09-21 09:55:00
UTC Time2019-09-21 09:55:59
Flight Rules lifr LIFR
WindCalm
Visibility805 m
Phenomena:Fog
Clouds:Overcast 002 Hf
Ceiling200 ft
Temp11°C (ISA -3)
Dew Point11°C (100% RH)
QNH1012 hPa
Density Alt571 ft
Elevation676 ft
Report Wrong Elevation
Raw Report
KSUW 210955Z AUTO 00000KT 1/2SM FG OVC002 11/11 A2987 RMK AO2
T01110111=

Extra information for KSUW:More info

Metar Taf Metar & Taf Last 4 Metars F.Rules Stats Wind Profile Meteogram Temp Stats Airport Information Weather charts Add Link Nearby VenuesMetar ALERT Operation Metar Decoded Social comments

AIRNAV info for KSUW